Time;durP1;ratioP1;P1;durP2;ratioP2;P2;SDS_P1;SDS_P2;PMS_P1;PMS_P2;Temp;Humidity;BMP_temperature;BMP_pressure;BME280_temperature;BME280_humidity;BME280_pressure;Samples;Min_cycle;Max_cycle;Signal;HPM_P1;HPM_P2
2022/01/03 13:11:17;;;;;;;20.80;4.60;;;17.40;68.60;;;;;;5161104;27;20298;-67
2022/01/03 13:13:45;;;;;;;25.23;3.65;;;17.40;70.80;;;;;;5121339;27;20138;-67
2022/01/03 13:16:30;;;;;;;25.90;4.10;;;17.40;71.60;;;;;;5100514;27;20633;-67
2022/01/03 13:19:01;;;;;;;22.02;3.67;;;17.40;71.00;;;;;;5132290;27;20043;-67
2022/01/03 13:21:29;;;;;;;25.30;4.43;;;17.30;72.90;;;;;;5103021;27;20092;-67
2022/01/03 13:23:56;;;;;;;20.83;3.75;;;17.30;74.60;;;;;;5138478;27;20503;-66
2022/01/03 13:26:23;;;;;;;21.77;4.00;;;17.20;76.20;;;;;;5100973;27;20500;-67
2022/01/03 13:28:51;;;;;;;21.27;3.80;;;17.20;77.00;;;;;;5115220;27;20040;-66
2022/01/03 13:31:18;;;;;;;21.67;3.47;;;17.20;77.20;;;;;;5150111;27;20061;-67
2022/01/03 13:33:43;;;;;;;19.23;3.85;;;17.10;77.70;;;;;;5158020;27;20126;-67
2022/01/03 13:36:14;;;;;;;20.67;3.67;;;17.10;77.90;;;;;;5123491;27;20122;-67
2022/01/03 13:38:40;;;;;;;22.73;4.15;;;17.10;77.70;;;;;;5106010;27;20587;-67
2022/01/03 13:41:17;;;;;;;22.23;3.88;;;17.10;77.50;;;;;;5123345;27;20050;-67
2022/01/03 13:43:50;;;;;;;19.50;3.83;;;17.10;77.00;;;;;;5122216;27;20035;-67
2022/01/03 13:49:21;;;;;;;19.13;4.18;;;17.10;77.30;;;;;;5096880;27;20384;-66
2022/01/03 13:51:55;;;;;;;17.63;3.65;;;17.00;77.20;;;;;;5113909;27;20043;-66
2022/01/03 13:54:28;;;;;;;22.00;4.18;;;17.00;76.90;;;;;;5104299;27;20126;-67
2022/01/03 13:56:56;;;;;;;14.50;3.60;;;17.00;76.50;;;;;;5121369;27;20035;-66
2022/01/03 13:59:25;;;;;;;17.77;3.33;;;17.00;76.70;;;;;;5098512;27;20053;-66
2022/01/03 14:01:52;;;;;;;17.77;3.50;;;17.00;76.90;;;;;;5097651;27;20544;-66
2022/01/03 14:04:18;;;;;;;13.55;3.00;;;17.00;77.60;;;;;;5123328;27;20039;-66
2022/01/03 14:06:44;;;;;;;15.20;3.30;;;17.00;77.60;;;;;;5121043;27;20178;-66
2022/01/03 14:09:16;;;;;;;16.85;3.13;;;17.00;77.20;;;;;;5119243;28;20055;-67
2022/01/03 14:11:42;;;;;;;17.83;4.15;;;17.10;76.30;;;;;;5099967;28;20047;-66
2022/01/03 14:14:13;;;;;;;19.33;4.28;;;17.10;77.30;;;;;;5119833;27;20092;-66
2022/01/03 14:16:56;;;;;;;16.75;3.88;;;17.10;77.70;;;;;;5100578;28;20070;-66
2022/01/03 14:19:26;;;;;;;16.40;3.38;;;17.10;76.70;;;;;;5119770;28;20096;-66
2022/01/03 14:21:52;;;;;;;16.85;3.05;;;17.10;77.00;;;;;;5107041;28;20031;-67
2022/01/03 14:24:18;;;;;;;14.73;3.08;;;17.20;76.50;;;;;;5105228;28;20035;-67
2022/01/03 14:26:59;;;;;;;15.13;3.10;;;17.20;75.70;;;;;;5099655;28;20129;-67
2022/01/03 14:29:37;;;;;;;14.52;3.20;;;17.30;74.80;;;;;;5105035;28;20050;-67
2022/01/03 14:32:14;;;;;;;14.93;3.17;;;17.30;75.30;;;;;;5066684;28;20499;-67
2022/01/03 14:34:52;;;;;;;13.35;3.15;;;17.30;75.60;;;;;;5096176;28;20597;-67
2022/01/03 14:37:27;;;;;;;15.07;3.28;;;17.40;74.90;;;;;;5076250;28;20541;-67
2022/01/03 14:39:57;;;;;;;16.52;3.35;;;17.40;74.50;;;;;;5052716;28;21896;-67
2022/01/03 14:42:25;;;;;;;14.23;3.40;;;17.40;74.40;;;;;;5059305;28;20115;-67
2022/01/03 14:44:52;;;;;;;13.35;3.05;;;17.40;74.20;;;;;;5055348;28;20040;-67
2022/01/03 14:47:25;;;;;;;14.18;3.10;;;17.50;73.90;;;;;;5091305;28;20431;-66
2022/01/03 14:50:00;;;;;;;13.50;3.35;;;17.50;74.60;;;;;;5105511;28;20453;-65
2022/01/03 14:52:43;;;;;;;14.07;3.22;;;17.50;75.20;;;;;;5085804;28;20031;-65
2022/01/03 14:55:12;;;;;;;10.53;2.93;;;17.50;74.20;;;;;;5105115;28;20477;-65
2022/01/03 14:57:46;;;;;;;12.48;3.22;;;17.50;74.10;;;;;;5105081;28;20039;-65
2022/01/03 15:00:14;;;;;;;14.82;3.60;;;17.60;73.50;;;;;;5103094;28;20047;-64
2022/01/03 15:02:39;;;;;;;14.82;3.40;;;17.50;74.10;;;;;;5060028;28;20054;-64
2022/01/03 15:05:06;;;;;;;16.25;4.10;;;17.60;74.00;;;;;;5091700;28;20035;-64
2022/01/03 15:07:36;;;;;;;15.05;3.78;;;17.60;74.30;;;;;;5094011;28;20050;-64
2022/01/03 15:10:04;;;;;;;12.75;4.10;;;17.60;75.30;;;;;;5095437;28;20039;-64
2022/01/03 15:12:30;;;;;;;12.00;3.40;;;17.60;74.60;;;;;;5103079;28;20054;-64
2022/01/03 15:14:55;;;;;;;18.42;3.90;;;17.60;74.00;;;;;;5103552;28;20043;-64
2022/01/03 15:17:21;;;;;;;15.30;3.75;;;17.60;73.60;;;;;;5102076;28;20035;-64
2022/01/03 15:19:47;;;;;;;20.73;4.68;;;17.60;74.20;;;;;;5103160;28;20047;-64
2022/01/03 15:22:12;;;;;;;18.85;4.53;;;17.60;74.20;;;;;;5097472;28;20036;-64
2022/01/03 15:24:38;;;;;;;13.52;4.15;;;17.60;74.00;;;;;;5102657;28;20736;-64
2022/01/03 15:27:04;;;;;;;15.20;3.88;;;17.60;74.80;;;;;;5119917;27;20051;-64
2022/01/03 15:29:29;;;;;;;18.20;4.43;;;17.60;74.30;;;;;;5104398;28;20673;-64
2022/01/03 15:31:55;;;;;;;12.70;3.58;;;17.60;74.00;;;;;;5102784;28;20457;-64
2022/01/03 15:34:20;;;;;;;17.35;3.88;;;17.60;73.80;;;;;;5103946;28;20039;-64
2022/01/03 15:36:47;;;;;;;17.08;4.00;;;17.60;73.80;;;;;;5103417;28;20042;-64
2022/01/03 15:39:13;;;;;;;12.48;3.92;;;17.60;73.50;;;;;;5095413;28;20048;-64
2022/01/03 15:41:39;;;;;;;18.05;4.40;;;17.60;73.00;;;;;;5084598;27;20132;-62
2022/01/03 15:44:04;;;;;;;14.57;4.43;;;17.60;73.50;;;;;;5071849;28;20047;-63
2022/01/03 15:46:30;;;;;;;17.52;4.18;;;17.50;74.30;;;;;;5116041;27;20065;-63
2022/01/03 15:48:55;;;;;;;16.98;4.00;;;17.50;74.30;;;;;;5104036;28;20041;-62
2022/01/03 15:51:21;;;;;;;15.15;5.25;;;17.50;73.80;;;;;;5083476;28;20104;-62
2022/01/03 15:53:47;;;;;;;18.52;5.20;;;17.50;73.90;;;;;;5066093;28;20069;-61
2022/01/03 15:56:12;;;;;;;22.80;5.60;;;17.50;73.60;;;;;;5077179;28;20028;-62
2022/01/03 15:58:38;;;;;;;21.25;5.45;;;17.50;73.30;;;;;;5093131;28;20032;-62
2022/01/03 16:01:04;;;;;;;28.33;6.20;;;17.50;73.40;;;;;;5087528;28;20035;-63
2022/01/03 16:03:30;;;;;;;25.88;7.03;;;17.50;74.80;;;;;;5094491;28;20568;-63
2022/01/03 16:05:56;;;;;;;29.13;6.68;;;17.50;74.40;;;;;;5101406;27;20071;-63
2022/01/03 16:08:23;;;;;;;27.02;7.15;;;17.50;73.60;;;;;;5134573;27;20127;-63
2022/01/03 16:10:49;;;;;;;22.35;6.22;;;17.50;73.10;;;;;;5090780;28;20106;-63
2022/01/03 16:13:16;;;;;;;22.63;5.55;;;17.50;73.10;;;;;;5081673;28;20035;-64
2022/01/03 16:15:42;;;;;;;23.55;6.22;;;17.50;72.80;;;;;;5065393;28;20036;-65
2022/01/03 16:18:08;;;;;;;21.73;6.30;;;17.50;72.80;;;;;;5078811;28;20036;-66
2022/01/03 16:20:33;;;;;;;25.35;7.00;;;17.50;73.30;;;;;;5094449;28;20040;-66
2022/01/03 16:22:59;;;;;;;27.92;7.47;;;17.50;73.90;;;;;;5081868;28;20110;-66
2022/01/03 16:25:24;;;;;;;24.40;6.90;;;17.40;73.80;;;;;;5083730;28;20111;-65
2022/01/03 16:27:50;;;;;;;26.40;7.30;;;17.40;74.40;;;;;;5081852;28;20668;-64
2022/01/03 16:30:18;;;;;;;28.83;7.35;;;17.40;75.70;;;;;;5063154;28;20048;-65
2022/01/03 16:32:44;;;;;;;27.83;7.03;;;17.40;75.50;;;;;;5067274;28;20040;-65
2022/01/03 16:35:10;;;;;;;21.15;7.47;;;17.40;75.40;;;;;;5074417;28;20036;-64
2022/01/03 16:37:36;;;;;;;26.33;6.72;;;17.40;76.20;;;;;;5078553;28;20036;-65
2022/01/03 16:40:09;;;;;;;23.38;6.13;;;17.40;77.10;;;;;;5081527;28;20040;-64
2022/01/03 16:42:35;;;;;;;18.00;6.43;;;17.40;77.40;;;;;;5077560;28;20050;-65
2022/01/03 16:45:00;;;;;;;20.73;6.28;;;17.40;77.30;;;;;;5080022;28;20040;-66
2022/01/03 16:47:32;;;;;;;21.58;6.63;;;17.30;77.10;;;;;;5079809;28;20050;-65
2022/01/03 16:49:59;;;;;;;23.48;7.10;;;17.30;77.20;;;;;;5082597;28;20055;-65
2022/01/03 16:52:24;;;;;;;18.30;5.55;;;17.30;77.30;;;;;;5081290;28;20072;-66
2022/01/03 16:54:50;;;;;;;18.25;5.47;;;17.30;77.20;;;;;;5065900;28;20136;-64
2022/01/03 16:57:15;;;;;;;16.98;5.53;;;17.30;78.20;;;;;;5081817;28;20039;-64
2022/01/03 16:59:41;;;;;;;17.85;5.30;;;17.30;78.50;;;;;;5081721;28;20050;-65
2022/01/03 17:02:07;;;;;;;20.95;5.72;;;17.30;78.70;;;;;;5081095;28;20036;-65
2022/01/03 17:04:32;;;;;;;23.58;6.13;;;17.20;78.60;;;;;;5082911;28;20125;-65
2022/01/03 17:06:58;;;;;;;21.42;6.22;;;17.20;78.40;;;;;;5054321;28;20055;-65
2022/01/03 17:09:23;;;;;;;14.45;5.32;;;17.20;78.30;;;;;;5069801;28;20039;-65
2022/01/03 17:11:49;;;;;;;16.38;5.00;;;17.20;76.30;;;;;;5112239;27;20048;-65
2022/01/03 17:14:18;;;;;;;15.45;5.13;;;17.20;77.90;;;;;;5093291;28;20059;-65
2022/01/03 17:16:44;;;;;;;15.80;4.70;;;17.20;78.70;;;;;;5079946;28;20043;-64
2022/01/03 17:19:10;;;;;;;16.02;5.20;;;17.20;79.20;;;;;;5126868;27;20040;-63
2022/01/03 17:21:35;;;;;;;13.85;4.15;;;17.10;79.10;;;;;;5127036;27;20055;-63
2022/01/03 17:24:01;;;;;;;14.48;4.95;;;17.10;78.50;;;;;;5086563;28;20130;-64
2022/01/03 17:26:28;;;;;;;13.15;4.38;;;17.10;77.60;;;;;;5102226;28;20048;-63
2022/01/03 17:28:53;;;;;;;15.05;4.68;;;17.10;76.70;;;;;;5089396;28;20686;-64
2022/01/03 17:31:20;;;;;;;12.85;5.07;;;17.10;78.00;;;;;;5086752;27;20031;-64
2022/01/03 17:33:46;;;;;;;14.57;4.38;;;17.10;79.20;;;;;;5124160;27;20115;-64
2022/01/03 17:36:11;;;;;;;16.40;4.68;;;17.00;79.50;;;;;;5096050;28;20119;-64
2022/01/03 17:38:37;;;;;;;19.55;4.50;;;17.10;79.80;;;;;;5104693;28;20031;-64
2022/01/03 17:41:04;;;;;;;16.02;4.13;;;17.00;79.90;;;;;;5085976;27;20035;-64
2022/01/03 17:43:31;;;;;;;17.25;4.07;;;17.00;79.90;;;;;;5079199;27;20063;-64
2022/01/03 17:45:58;;;;;;;16.15;3.90;;;17.00;79.90;;;;;;5088426;28;20043;-64
2022/01/03 17:48:24;;;;;;;12.70;3.70;;;17.00;79.80;;;;;;5103721;28;20035;-64
2022/01/03 17:50:49;;;;;;;12.15;3.80;;;17.00;80.00;;;;;;5122798;27;20031;-64
2022/01/03 17:53:15;;;;;;;13.27;3.75;;;16.90;80.20;;;;;;5104001;28;20047;-64
2022/01/03 17:55:42;;;;;;;12.55;3.78;;;16.90;80.50;;;;;;5104976;27;20035;-64
2022/01/03 17:58:11;;;;;;;15.60;4.80;;;16.90;80.50;;;;;;5126915;27;20079;-64
2022/01/03 18:00:37;;;;;;;12.30;3.78;;;16.90;80.50;;;;;;5102969;27;20046;-65
2022/01/03 18:03:03;;;;;;;11.82;3.55;;;16.90;80.60;;;;;;5097661;27;20047;-64
2022/01/03 18:05:29;;;;;;;11.02;3.40;;;16.90;80.40;;;;;;5088230;28;20036;-64
2022/01/03 18:07:55;;;;;;;12.20;3.35;;;16.90;80.50;;;;;;5090885;27;20512;-64
2022/01/03 18:10:21;;;;;;;10.70;3.13;;;16.90;80.60;;;;;;5099083;27;20050;-64
2022/01/03 18:12:58;;;;;;;11.10;2.92;;;16.90;80.80;;;;;;5108437;27;20039;-64
2022/01/03 18:15:24;;;;;;;12.50;3.72;;;16.80;80.90;;;;;;5106295;28;20508;-64
2022/01/03 18:17:50;;;;;;;10.75;3.58;;;16.80;80.90;;;;;;5099538;27;20123;-64
2022/01/03 18:20:16;;;;;;;16.15;4.25;;;16.80;80.90;;;;;;5091847;27;20039;-64
2022/01/03 18:22:42;;;;;;;10.45;3.22;;;16.80;80.60;;;;;;5124442;27;20054;-64
2022/01/03 18:25:09;;;;;;;11.77;2.88;;;16.80;80.80;;;;;;5103213;27;20385;-64
2022/01/03 18:27:36;;;;;;;8.68;2.80;;;16.80;80.70;;;;;;5101930;27;20437;-64
2022/01/03 18:30:11;;;;;;;9.18;2.47;;;16.80;80.90;;;;;;5108950;27;20043;-64
2022/01/03 18:32:37;;;;;;;11.15;3.30;;;16.80;80.90;;;;;;5108527;27;20164;-64
2022/01/03 18:35:04;;;;;;;10.98;2.70;;;16.80;81.00;;;;;;5108559;27;20599;-64
2022/01/03 18:37:29;;;;;;;9.10;3.08;;;16.70;80.60;;;;;;5108207;27;20039;-64
2022/01/03 18:39:55;;;;;;;9.85;2.70;;;16.70;80.60;;;;;;5109134;27;20039;-64
2022/01/03 18:42:21;;;;;;;12.40;2.92;;;16.70;80.80;;;;;;5107965;27;20065;-64
2022/01/03 18:44:46;;;;;;;10.30;2.72;;;16.70;80.40;;;;;;5108275;27;20506;-64
2022/01/03 18:47:12;;;;;;;11.80;2.95;;;16.70;80.20;;;;;;5106831;27;20043;-64
2022/01/03 18:49:38;;;;;;;9.05;2.78;;;16.70;80.20;;;;;;5108655;27;20035;-64
2022/01/03 18:52:04;;;;;;;11.88;2.95;;;16.70;80.40;;;;;;5107115;27;20604;-64
2022/01/03 18:54:29;;;;;;;10.07;2.63;;;16.60;80.40;;;;;;5108965;27;20163;-64
2022/01/03 18:56:55;;;;;;;10.27;3.20;;;16.60;80.30;;;;;;5100284;27;20031;-64
2022/01/03 18:59:24;;;;;;;14.43;2.95;;;16.60;80.30;;;;;;5103964;27;20707;-64
2022/01/03 19:01:50;;;;;;;12.45;2.70;;;16.60;80.40;;;;;;5098740;27;20536;-64
2022/01/03 19:04:16;;;;;;;11.60;2.65;;;16.60;80.40;;;;;;5108375;27;20134;-64
2022/01/03 19:06:42;;;;;;;10.32;2.83;;;16.60;80.50;;;;;;5106215;27;20134;-64
2022/01/03 19:09:07;;;;;;;9.90;2.80;;;16.60;80.50;;;;;;5107765;27;20035;-64
2022/01/03 19:11:33;;;;;;;9.38;2.65;;;16.60;80.60;;;;;;5090643;27;20054;-64
2022/01/03 19:13:58;;;;;;;14.02;3.10;;;16.60;80.50;;;;;;5103030;27;20747;-64
2022/01/03 19:16:24;;;;;;;9.05;2.35;;;16.60;80.20;;;;;;5102234;27;20126;-64
2022/01/03 19:18:50;;;;;;;11.55;3.25;;;16.60;80.20;;;;;;5108297;27;20691;-64
2022/01/03 19:21:16;;;;;;;10.38;2.67;;;16.60;80.20;;;;;;5107961;27;20144;-64
2022/01/03 19:23:42;;;;;;;12.35;2.92;;;16.60;80.10;;;;;;5107128;27;20047;-64
2022/01/03 19:26:09;;;;;;;9.73;2.47;;;16.60;80.10;;;;;;5126497;27;20042;-64
2022/01/03 19:28:37;;;;;;;10.57;2.50;;;16.60;80.30;;;;;;5109161;27;20046;-65
2022/01/03 19:31:03;;;;;;;10.40;2.20;;;16.60;80.30;;;;;;5091447;27;20043;-64
2022/01/03 19:38:43;;;;;;;11.27;2.90;;;16.50;80.10;;;;;;5106232;27;20047;-64
2022/01/03 19:41:09;;;;;;;10.98;2.50;;;16.50;79.90;;;;;;5106668;27;20042;-65
2022/01/03 19:43:35;;;;;;;12.02;3.22;;;16.50;79.60;;;;;;5104891;27;20047;-65
2022/01/03 19:46:01;;;;;;;10.85;3.22;;;16.50;78.80;;;;;;5122983;27;20621;-65
2022/01/03 19:48:26;;;;;;;8.18;2.50;;;16.50;78.40;;;;;;5088952;27;20629;-64
2022/01/03 19:50:52;;;;;;;10.27;2.50;;;16.50;78.20;;;;;;5104897;27;20043;-65
2022/01/03 19:53:19;;;;;;;11.07;2.72;;;16.50;77.70;;;;;;5104929;27;20629;-63
2022/01/03 19:55:46;;;;;;;10.40;2.75;;;16.60;78.20;;;;;;5106081;27;20070;-64
2022/01/03 19:58:13;;;;;;;13.00;3.28;;;16.50;78.30;;;;;;5105183;27;20577;-64
2022/01/03 20:00:38;;;;;;;12.15;2.70;;;16.50;78.70;;;;;;5096145;28;20184;-65
2022/01/03 20:03:04;;;;;;;10.90;2.65;;;16.50;79.00;;;;;;5084977;28;20046;-64
2022/01/03 20:05:30;;;;;;;10.43;2.90;;;16.50;79.20;;;;;;5083607;28;20650;-65
2022/01/03 20:07:58;;;;;;;9.13;2.63;;;16.50;79.30;;;;;;5115336;27;20134;-65
2022/01/03 20:10:24;;;;;;;10.15;2.60;;;16.50;79.40;;;;;;5105702;27;20054;-65
2022/01/03 20:12:49;;;;;;;11.23;3.00;;;16.40;79.20;;;;;;5104172;27;20035;-64
2022/01/03 20:15:15;;;;;;;9.88;2.88;;;16.40;79.00;;;;;;5123956;27;20057;-65
2022/01/03 20:17:41;;;;;;;9.77;2.65;;;16.40;79.00;;;;;;5105155;27;20039;-65
2022/01/03 20:20:10;;;;;;;11.00;2.72;;;16.40;79.10;;;;;;5104414;27;20477;-65
2022/01/03 20:22:37;;;;;;;10.95;2.65;;;16.40;79.10;;;;;;5104917;27;20047;-65
2022/01/03 20:25:03;;;;;;;10.77;2.83;;;16.40;78.90;;;;;;5124544;27;20043;-65
2022/01/03 20:27:29;;;;;;;11.63;2.95;;;16.40;79.10;;;;;;5104586;27;20074;-65
2022/01/03 20:29:55;;;;;;;11.13;2.60;;;16.40;79.00;;;;;;5105586;27;20091;-65
2022/01/03 20:32:20;;;;;;;12.40;3.13;;;16.40;79.00;;;;;;5104756;27;20447;-65
2022/01/03 20:34:46;;;;;;;10.75;2.83;;;16.40;78.90;;;;;;5123979;27;20168;-65
2022/01/03 20:37:15;;;;;;;10.30;2.40;;;16.40;78.80;;;;;;5103797;28;20082;-65
2022/01/03 20:39:42;;;;;;;9.57;2.58;;;16.40;78.90;;;;;;5088988;27;20047;-65
2022/01/03 20:42:08;;;;;;;9.25;3.25;;;16.30;79.00;;;;;;5104086;27;20047;-65
2022/01/03 20:44:36;;;;;;;8.35;2.10;;;16.40;79.10;;;;;;5106242;27;20701;-66
2022/01/03 20:47:02;;;;;;;10.63;2.67;;;16.30;79.00;;;;;;5087529;27;20047;-65
2022/01/03 20:49:28;;;;;;;8.50;2.25;;;16.30;79.20;;;;;;5104854;27;20043;-65
2022/01/03 20:51:56;;;;;;;9.55;2.08;;;16.30;79.00;;;;;;5122721;27;20048;-65
2022/01/03 20:54:22;;;;;;;10.70;2.50;;;16.30;78.80;;;;;;5123960;27;20042;-64
2022/01/03 20:56:53;;;;;;;10.75;2.17;;;16.30;78.90;;;;;;5094231;27;20548;-64
2022/01/03 20:59:19;;;;;;;11.55;2.95;;;16.30;78.90;;;;;;5138148;27;20043;-64
2022/01/03 21:01:45;;;;;;;9.38;2.20;;;16.20;78.40;;;;;;5086325;27;20055;-65
2022/01/03 21:04:11;;;;;;;8.48;2.13;;;16.30;78.40;;;;;;5105952;27;20433;-65
2022/01/03 21:06:37;;;;;;;9.82;2.53;;;16.20;78.50;;;;;;5104520;28;20051;-65
2022/01/03 21:09:05;;;;;;;10.77;3.58;;;16.20;78.50;;;;;;5106289;28;20154;-65
2022/01/03 21:11:31;;;;;;;7.15;2.30;;;16.20;78.60;;;;;;5105136;28;20115;-65
2022/01/03 21:13:56;;;;;;;8.80;1.85;;;16.20;78.60;;;;;;5105718;28;20059;-65
2022/01/03 21:16:22;;;;;;;12.75;2.58;;;16.20;78.70;;;;;;5089688;28;20107;-65
2022/01/03 21:18:47;;;;;;;10.73;2.38;;;16.20;78.80;;;;;;5104123;28;20126;-65
2022/01/03 21:21:13;;;;;;;6.93;2.08;;;16.10;78.60;;;;;;5105796;27;20070;-65
2022/01/03 21:23:39;;;;;;;9.00;2.20;;;16.20;78.70;;;;;;5104990;28;20646;-65
2022/01/03 21:26:05;;;;;;;10.32;2.38;;;16.20;78.80;;;;;;5105960;27;20110;-64
2022/01/03 21:28:32;;;;;;;7.53;2.35;;;16.20;78.50;;;;;;5099314;27;20120;-65
2022/01/03 21:30:59;;;;;;;9.02;2.10;;;16.20;78.30;;;;;;5115648;27;20047;-65
2022/01/03 21:33:25;;;;;;;11.02;2.13;;;16.10;78.20;;;;;;5139605;27;20509;-65
2022/01/03 21:35:50;;;;;;;9.80;2.05;;;16.20;78.40;;;;;;5093102;27;20050;-65
2022/01/03 21:38:16;;;;;;;8.73;2.10;;;16.20;78.60;;;;;;5108858;27;20043;-65
2022/01/03 21:40:42;;;;;;;10.45;2.30;;;16.20;78.60;;;;;;5108834;27;20756;-65
2022/01/03 21:43:08;;;;;;;12.05;2.03;;;16.10;78.60;;;;;;5107046;27;20093;-65
2022/01/03 21:45:33;;;;;;;11.07;2.20;;;16.10;78.50;;;;;;5109357;27;20050;-65
2022/01/03 21:48:01;;;;;;;10.00;2.22;;;16.10;78.20;;;;;;5108859;27;20589;-65
2022/01/03 21:50:27;;;;;;;9.35;2.53;;;16.10;78.40;;;;;;5109140;27;20036;-65
2022/01/03 21:52:54;;;;;;;7.45;1.95;;;16.10;78.50;;;;;;5108283;27;20614;-65
2022/01/03 21:55:21;;;;;;;9.25;2.50;;;16.10;78.70;;;;;;5109688;27;20047;-65
2022/01/03 21:57:46;;;;;;;8.98;2.03;;;16.10;78.80;;;;;;5092212;27;20122;-65
2022/01/03 22:00:13;;;;;;;7.97;2.08;;;16.10;78.80;;;;;;5109033;27;20126;-65
2022/01/03 22:02:39;;;;;;;9.10;2.10;;;16.10;78.50;;;;;;5095484;28;20055;-65
2022/01/03 22:05:05;;;;;;;7.80;1.77;;;16.10;78.30;;;;;;5106452;27;20412;-65
2022/01/03 22:07:32;;;;;;;10.15;1.92;;;16.10;78.40;;;;;;5092586;28;20683;-65
2022/01/03 22:09:58;;;;;;;8.43;2.17;;;16.10;78.30;;;;;;5088570;28;20056;-65
2022/01/03 22:12:24;;;;;;;9.07;2.08;;;16.00;78.20;;;;;;5095459;27;20079;-65
2022/01/03 22:14:51;;;;;;;9.95;2.65;;;16.00;78.30;;;;;;5109197;27;20675;-65
2022/01/03 22:17:17;;;;;;;6.65;1.65;;;16.10;77.80;;;;;;5125087;27;20613;-65
2022/01/03 22:19:43;;;;;;;6.95;2.00;;;16.10;77.80;;;;;;5109736;27;20107;-65
2022/01/03 22:22:08;;;;;;;9.68;2.17;;;16.00;78.00;;;;;;5107844;27;20046;-65
2022/01/03 22:24:34;;;;;;;11.15;2.17;;;16.10;77.80;;;;;;5109334;27;20043;-65
2022/01/03 22:27:02;;;;;;;8.13;2.03;;;16.00;77.90;;;;;;5124972;27;20089;-65
2022/01/03 22:29:29;;;;;;;10.18;2.13;;;16.00;77.90;;;;;;5108773;27;20046;-65
2022/01/03 22:31:54;;;;;;;8.85;2.40;;;16.00;77.90;;;;;;5106726;27;20047;-65
2022/01/03 22:34:20;;;;;;;8.73;2.15;;;16.00;78.10;;;;;;5127513;27;20042;-65
2022/01/03 22:36:46;;;;;;;7.07;1.85;;;16.00;78.00;;;;;;5107876;27;20072;-64
2022/01/03 22:39:11;;;;;;;8.10;2.10;;;16.00;78.10;;;;;;5108837;27;20047;-64
2022/01/03 22:41:37;;;;;;;7.70;2.00;;;16.00;77.80;;;;;;5107231;27;20059;-65
2022/01/03 22:44:02;;;;;;;6.40;1.83;;;16.00;77.60;;;;;;5127915;27;20072;-65
2022/01/03 22:46:28;;;;;;;7.13;1.58;;;16.00;77.70;;;;;;5107837;27;20054;-65
2022/01/03 22:48:54;;;;;;;8.00;2.08;;;16.00;77.70;;;;;;5091087;27;20043;-65
2022/01/03 22:51:19;;;;;;;9.30;2.15;;;16.00;77.90;;;;;;5092828;27;20058;-65
2022/01/03 22:53:45;;;;;;;5.88;1.70;;;16.00;78.10;;;;;;5102989;28;20031;-67
2022/01/03 22:56:10;;;;;;;11.02;2.28;;;15.90;77.80;;;;;;5106491;28;20038;-68
2022/01/03 22:58:36;;;;;;;9.57;2.17;;;16.00;77.50;;;;;;5106069;27;20183;-68
2022/01/03 23:01:03;;;;;;;11.63;2.65;;;16.00;76.90;;;;;;5085927;27;20938;-67
2022/01/03 23:03:28;;;;;;;12.23;2.55;;;16.10;77.10;;;;;;5081633;27;20053;-67
2022/01/03 23:05:54;;;;;;;12.18;2.35;;;16.10;77.40;;;;;;5085942;28;20031;-68
2022/01/03 23:08:20;;;;;;;10.05;2.15;;;16.10;77.60;;;;;;5103444;27;20072;-68
2022/01/03 23:10:45;;;;;;;10.30;2.63;;;16.10;77.60;;;;;;5107268;27;20062;-67
2022/01/03 23:13:11;;;;;;;11.27;2.40;;;16.10;77.50;;;;;;5091093;28;20040;-68
2022/01/03 23:15:37;;;;;;;9.82;2.10;;;16.10;77.70;;;;;;5091757;27;20043;-66
2022/01/03 23:18:03;;;;;;;11.98;2.40;;;16.10;77.90;;;;;;5091789;27;20031;-66
2022/01/03 23:20:30;;;;;;;11.90;2.03;;;16.10;78.30;;;;;;5089795;28;20044;-66
2022/01/03 23:22:56;;;;;;;9.10;2.25;;;16.10;78.70;;;;;;5092039;28;20132;-67
2022/01/03 23:25:24;;;;;;;8.45;2.17;;;16.10;79.20;;;;;;5087267;28;20036;-66
2022/01/03 23:27:50;;;;;;;8.00;2.15;;;16.10;79.70;;;;;;5087694;27;20576;-66
2022/01/03 23:30:18;;;;;;;9.15;2.22;;;16.10;79.90;;;;;;5105731;27;20048;-66
2022/01/03 23:32:44;;;;;;;9.45;1.90;;;16.10;79.60;;;;;;5085637;27;20054;-66
2022/01/03 23:35:10;;;;;;;13.15;2.53;;;16.10;79.80;;;;;;5112954;27;20035;-67
2022/01/03 23:37:36;;;;;;;8.50;2.10;;;16.00;80.00;;;;;;5111812;27;20032;-67
2022/01/03 23:40:03;;;;;;;15.15;2.58;;;16.10;79.90;;;;;;5089017;27;20204;-67
2022/01/03 23:42:28;;;;;;;8.38;1.98;;;16.10;79.90;;;;;;5105521;27;20038;-67
2022/01/03 23:44:54;;;;;;;13.32;2.35;;;16.10;80.00;;;;;;5141994;27;20552;-67
2022/01/03 23:47:19;;;;;;;8.68;2.28;;;16.10;79.90;;;;;;5132404;27;20043;-67
2022/01/03 23:49:45;;;;;;;9.32;2.00;;;16.10;79.20;;;;;;5095536;28;20032;-67
2022/01/03 23:52:11;;;;;;;11.18;1.83;;;16.10;79.40;;;;;;5090542;27;20035;-67
2022/01/03 23:54:37;;;;;;;9.43;2.08;;;16.20;79.70;;;;;;5090823;27;20027;-67
2022/01/03 23:57:03;;;;;;;9.38;2.00;;;16.20;79.80;;;;;;5134748;27;20677;-67
2022/01/03 23:59:28;;;;;;;10.82;2.10;;;16.20;79.30;;;;;;5124764;27;20066;-67
